Eau Claire, Pennsylvania
Current Conditions -  °F | °C
As of 6:35 AM on Saturday 25 Oct 2014 (Local Time) from KFKL Reporting Station
Overcast Overcast  
Wind Chill: 43°   Ceiling: 4200
Heat Index: 46°   Visibility: 10mi
Dew Point: 37°   Wind: 7mph
Humidity: 71%   Direction: 220°SW
Pressure: 29.95"   Gusts: NA
Location:  41.14°N, 79.8°W
Report Text: KFKL 251035Z 22006KT 10SM OVC042 08/03 A2995 RMK AO1
Loading
Personal Weather Stations






























Interactive Weather Map
Tropical Storm Tracking
New forecast layout! Learn more

10-Day Weather Forecast

Advertisements
Track Severe Weather on mobile